sensor_id;sensor_type;location;lat;lon;timestamp;P1;durP1;ratioP1;P2;durP2;ratioP2
52468;SDS011;38381;53.688;10.776;2022-09-13T00:03:09;4.45;;;4.05;;
52468;SDS011;38381;53.688;10.776;2022-09-13T00:08:11;4.50;;;4.10;;
52468;SDS011;38381;53.688;10.776;2022-09-13T00:13:13;3.88;;;3.47;;
52468;SDS011;38381;53.688;10.776;2022-09-13T00:23:15;5.03;;;4.20;;
52468;SDS011;38381;53.688;10.776;2022-09-13T00:28:15;4.05;;;3.67;;
52468;SDS011;38381;53.688;10.776;2022-09-13T00:33:16;4.47;;;3.78;;
52468;SDS011;38381;53.688;10.776;2022-09-13T00:38:16;3.72;;;3.42;;
52468;SDS011;38381;53.688;10.776;2022-09-13T00:43:17;4.38;;;3.83;;
52468;SDS011;38381;53.688;10.776;2022-09-13T00:48:20;3.58;;;3.20;;
52468;SDS011;38381;53.688;10.776;2022-09-13T00:53:25;3.97;;;3.65;;
52468;SDS011;38381;53.688;10.776;2022-09-13T00:58:48;4.00;;;3.33;;
52468;SDS011;38381;53.688;10.776;2022-09-13T01:03:53;3.88;;;3.50;;
52468;SDS011;38381;53.688;10.776;2022-09-13T01:08:54;3.90;;;3.47;;
52468;SDS011;38381;53.688;10.776;2022-09-13T01:13:57;4.93;;;3.85;;
52468;SDS011;38381;53.688;10.776;2022-09-13T01:18:58;4.20;;;3.80;;
52468;SDS011;38381;53.688;10.776;2022-09-13T01:29:44;5.85;;;5.25;;
52468;SDS011;38381;53.688;10.776;2022-09-13T01:40:29;4.40;;;4.00;;
52468;SDS011;38381;53.688;10.776;2022-09-13T01:51:08;4.53;;;3.95;;
52468;SDS011;38381;53.688;10.776;2022-09-13T01:56:39;6.45;;;4.35;;
52468;SDS011;38381;53.688;10.776;2022-09-13T02:02:19;4.63;;;4.18;;
52468;SDS011;38381;53.688;10.776;2022-09-13T02:07:26;4.97;;;4.53;;
52468;SDS011;38381;53.688;10.776;2022-09-13T02:12:32;5.30;;;4.80;;
52468;SDS011;38381;53.688;10.776;2022-09-13T02:17:36;4.93;;;4.45;;
52468;SDS011;38381;53.688;10.776;2022-09-13T02:22:41;5.07;;;4.55;;
52468;SDS011;38381;53.688;10.776;2022-09-13T02:27:46;5.45;;;4.80;;
52468;SDS011;38381;53.688;10.776;2022-09-13T02:38:01;8.93;;;5.72;;
52468;SDS011;38381;53.688;10.776;2022-09-13T02:43:07;5.47;;;5.05;;
52468;SDS011;38381;53.688;10.776;2022-09-13T02:48:20;7.05;;;5.80;;
52468;SDS011;38381;53.688;10.776;2022-09-13T02:53:36;6.63;;;4.95;;
52468;SDS011;38381;53.688;10.776;2022-09-13T03:03:45;5.78;;;5.20;;
52468;SDS011;38381;53.688;10.776;2022-09-13T03:08:46;6.25;;;5.65;;
52468;SDS011;38381;53.688;10.776;2022-09-13T03:19:27;6.72;;;6.03;;
52468;SDS011;38381;53.688;10.776;2022-09-13T03:24:49;7.18;;;5.28;;
52468;SDS011;38381;53.688;10.776;2022-09-13T03:40:15;5.78;;;5.28;;
52468;SDS011;38381;53.688;10.776;2022-09-13T03:45:39;6.07;;;5.50;;
52468;SDS011;38381;53.688;10.776;2022-09-13T03:50:44;8.50;;;5.85;;
52468;SDS011;38381;53.688;10.776;2022-09-13T03:55:46;6.85;;;5.68;;
52468;SDS011;38381;53.688;10.776;2022-09-13T04:00:46;7.78;;;5.97;;
52468;SDS011;38381;53.688;10.776;2022-09-13T04:05:47;6.30;;;5.70;;
52468;SDS011;38381;53.688;10.776;2022-09-13T04:10:49;8.00;;;6.30;;
52468;SDS011;38381;53.688;10.776;2022-09-13T04:20:54;6.78;;;5.90;;
52468;SDS011;38381;53.688;10.776;2022-09-13T04:25:59;6.63;;;5.97;;
52468;SDS011;38381;53.688;10.776;2022-09-13T04:31:04;7.32;;;6.63;;
52468;SDS011;38381;53.688;10.776;2022-09-13T04:36:04;7.07;;;6.30;;
52468;SDS011;38381;53.688;10.776;2022-09-13T04:41:04;7.43;;;6.70;;
52468;SDS011;38381;53.688;10.776;2022-09-13T04:46:05;11.25;;;6.20;;
52468;SDS011;38381;53.688;10.776;2022-09-13T04:51:05;7.93;;;7.20;;
52468;SDS011;38381;53.688;10.776;2022-09-13T04:56:05;8.45;;;7.55;;
52468;SDS011;38381;53.688;10.776;2022-09-13T05:01:07;8.60;;;6.82;;
52468;SDS011;38381;53.688;10.776;2022-09-13T05:06:09;9.32;;;8.43;;
52468;SDS011;38381;53.688;10.776;2022-09-13T05:11:12;8.68;;;7.47;;
52468;SDS011;38381;53.688;10.776;2022-09-13T05:16:12;9.40;;;8.47;;
52468;SDS011;38381;53.688;10.776;2022-09-13T05:21:12;11.32;;;7.93;;
52468;SDS011;38381;53.688;10.776;2022-09-13T05:26:13;9.65;;;8.30;;
52468;SDS011;38381;53.688;10.776;2022-09-13T05:31:14;10.33;;;8.60;;
52468;SDS011;38381;53.688;10.776;2022-09-13T05:36:17;10.55;;;8.55;;
52468;SDS011;38381;53.688;10.776;2022-09-13T05:41:18;11.07;;;9.88;;
52468;SDS011;38381;53.688;10.776;2022-09-13T05:46:19;12.30;;;10.95;;
52468;SDS011;38381;53.688;10.776;2022-09-13T05:51:21;12.55;;;10.32;;
52468;SDS011;38381;53.688;10.776;2022-09-13T05:56:26;14.10;;;10.43;;
52468;SDS011;38381;53.688;10.776;2022-09-13T06:01:27;14.98;;;12.75;;
52468;SDS011;38381;53.688;10.776;2022-09-13T06:06:28;14.40;;;12.73;;
52468;SDS011;38381;53.688;10.776;2022-09-13T06:11:28;16.27;;;12.68;;
52468;SDS011;38381;53.688;10.776;2022-09-13T06:16:29;16.88;;;13.55;;
52468;SDS011;38381;53.688;10.776;2022-09-13T06:21:29;11.90;;;10.68;;
52468;SDS011;38381;53.688;10.776;2022-09-13T06:26:29;16.08;;;13.43;;
52468;SDS011;38381;53.688;10.776;2022-09-13T06:31:30;14.25;;;11.30;;
52468;SDS011;38381;53.688;10.776;2022-09-13T06:36:31;14.80;;;12.35;;
52468;SDS011;38381;53.688;10.776;2022-09-13T06:41:31;14.10;;;12.68;;
52468;SDS011;38381;53.688;10.776;2022-09-13T06:46:32;13.87;;;12.10;;
52468;SDS011;38381;53.688;10.776;2022-09-13T06:51:34;15.15;;;13.00;;
52468;SDS011;38381;53.688;10.776;2022-09-13T06:56:36;16.23;;;13.30;;
52468;SDS011;38381;53.688;10.776;2022-09-13T07:01:37;15.15;;;13.52;;
52468;SDS011;38381;53.688;10.776;2022-09-13T07:06:40;13.77;;;12.40;;
52468;SDS011;38381;53.688;10.776;2022-09-13T07:11:47;15.20;;;12.77;;
52468;SDS011;38381;53.688;10.776;2022-09-13T07:16:49;13.30;;;11.77;;
52468;SDS011;38381;53.688;10.776;2022-09-13T07:21:50;14.70;;;12.57;;
52468;SDS011;38381;53.688;10.776;2022-09-13T07:26:52;13.03;;;11.30;;
52468;SDS011;38381;53.688;10.776;2022-09-13T07:31:53;14.93;;;10.43;;
52468;SDS011;38381;53.688;10.776;2022-09-13T07:36:54;16.53;;;11.17;;
52468;SDS011;38381;53.688;10.776;2022-09-13T07:41:54;12.17;;;10.17;;
52468;SDS011;38381;53.688;10.776;2022-09-13T07:46:55;12.18;;;10.02;;
52468;SDS011;38381;53.688;10.776;2022-09-13T07:51:55;11.65;;;8.70;;
52468;SDS011;38381;53.688;10.776;2022-09-13T07:56:55;9.32;;;7.88;;
52468;SDS011;38381;53.688;10.776;2022-09-13T08:01:55;9.57;;;7.25;;
52468;SDS011;38381;53.688;10.776;2022-09-13T08:06:56;7.50;;;6.43;;
52468;SDS011;38381;53.688;10.776;2022-09-13T08:11:56;9.60;;;7.80;;
52468;SDS011;38381;53.688;10.776;2022-09-13T08:16:56;8.48;;;6.63;;
52468;SDS011;38381;53.688;10.776;2022-09-13T08:21:57;11.88;;;6.63;;
52468;SDS011;38381;53.688;10.776;2022-09-13T08:26:57;8.63;;;6.03;;
52468;SDS011;38381;53.688;10.776;2022-09-13T08:31:57;7.70;;;4.85;;
52468;SDS011;38381;53.688;10.776;2022-09-13T08:36:57;8.87;;;4.97;;
52468;SDS011;38381;53.688;10.776;2022-09-13T08:42:10;6.22;;;3.97;;
52468;SDS011;38381;53.688;10.776;2022-09-13T08:47:22;6.53;;;3.30;;
52468;SDS011;38381;53.688;10.776;2022-09-13T08:58:07;5.28;;;3.50;;
52468;SDS011;38381;53.688;10.776;2022-09-13T09:03:27;5.53;;;3.42;;
52468;SDS011;38381;53.688;10.776;2022-09-13T09:24:55;5.75;;;1.60;;
52468;SDS011;38381;53.688;10.776;2022-09-13T09:29:56;2.67;;;1.50;;
52468;SDS011;38381;53.688;10.776;2022-09-13T09:40:10;5.22;;;1.92;;
52468;SDS011;38381;53.688;10.776;2022-09-13T09:45:18;3.08;;;1.73;;
52468;SDS011;38381;53.688;10.776;2022-09-13T09:50:27;5.32;;;1.67;;
52468;SDS011;38381;53.688;10.776;2022-09-13T09:55:39;3.50;;;1.52;;
52468;SDS011;38381;53.688;10.776;2022-09-13T10:00:54;4.15;;;1.42;;
52468;SDS011;38381;53.688;10.776;2022-09-13T10:06:10;3.80;;;1.50;;
52468;SDS011;38381;53.688;10.776;2022-09-13T10:11:13;5.55;;;1.70;;
52468;SDS011;38381;53.688;10.776;2022-09-13T10:16:29;1.27;;;1.10;;
52468;SDS011;38381;53.688;10.776;2022-09-13T10:21:30;9.07;;;1.63;;
52468;SDS011;38381;53.688;10.776;2022-09-13T10:26:31;4.13;;;1.40;;
52468;SDS011;38381;53.688;10.776;2022-09-13T10:36:35;3.77;;;1.50;;
52468;SDS011;38381;53.688;10.776;2022-09-13T10:41:38;3.38;;;1.42;;
52468;SDS011;38381;53.688;10.776;2022-09-13T10:46:47;2.22;;;1.23;;
52468;SDS011;38381;53.688;10.776;2022-09-13T10:51:49;3.70;;;1.73;;
52468;SDS011;38381;53.688;10.776;2022-09-13T10:56:49;3.33;;;1.55;;
52468;SDS011;38381;53.688;10.776;2022-09-13T11:12:06;6.28;;;1.60;;
52468;SDS011;38381;53.688;10.776;2022-09-13T11:27:45;6.50;;;2.08;;
52468;SDS011;38381;53.688;10.776;2022-09-13T11:38:33;3.47;;;1.60;;
52468;SDS011;38381;53.688;10.776;2022-09-13T11:43:46;3.22;;;1.45;;
52468;SDS011;38381;53.688;10.776;2022-09-13T11:54:53;5.63;;;1.88;;
52468;SDS011;38381;53.688;10.776;2022-09-13T12:05:15;4.88;;;1.45;;
52468;SDS011;38381;53.688;10.776;2022-09-13T12:10:23;2.95;;;1.73;;
52468;SDS011;38381;53.688;10.776;2022-09-13T12:20:35;3.80;;;2.08;;
52468;SDS011;38381;53.688;10.776;2022-09-13T12:25:44;1.80;;;1.35;;
52468;SDS011;38381;53.688;10.776;2022-09-13T12:30:54;10.82;;;1.88;;
52468;SDS011;38381;53.688;10.776;2022-09-13T12:41:10;5.68;;;1.50;;
52468;SDS011;38381;53.688;10.776;2022-09-13T12:46:31;6.07;;;2.03;;
52468;SDS011;38381;53.688;10.776;2022-09-13T12:51:52;4.78;;;1.88;;
52468;SDS011;38381;53.688;10.776;2022-09-13T12:57:04;4.28;;;1.63;;
52468;SDS011;38381;53.688;10.776;2022-09-13T13:02:27;5.07;;;1.80;;
52468;SDS011;38381;53.688;10.776;2022-09-13T13:07:34;6.30;;;1.50;;
52468;SDS011;38381;53.688;10.776;2022-09-13T13:12:38;2.30;;;1.60;;
52468;SDS011;38381;53.688;10.776;2022-09-13T13:22:48;8.50;;;2.08;;
52468;SDS011;38381;53.688;10.776;2022-09-13T13:27:49;2.35;;;1.73;;
52468;SDS011;38381;53.688;10.776;2022-09-13T13:33:03;6.90;;;2.22;;
52468;SDS011;38381;53.688;10.776;2022-09-13T13:38:15;2.42;;;1.25;;
52468;SDS011;38381;53.688;10.776;2022-09-13T13:43:29;3.28;;;1.27;;
52468;SDS011;38381;53.688;10.776;2022-09-13T13:48:35;3.13;;;1.70;;
52468;SDS011;38381;53.688;10.776;2022-09-13T13:53:38;8.07;;;2.17;;
52468;SDS011;38381;53.688;10.776;2022-09-13T14:09:35;4.97;;;1.50;;
52468;SDS011;38381;53.688;10.776;2022-09-13T14:14:42;2.60;;;1.20;;
52468;SDS011;38381;53.688;10.776;2022-09-13T14:19:54;6.07;;;1.90;;
52468;SDS011;38381;53.688;10.776;2022-09-13T14:25:15;4.00;;;1.40;;
52468;SDS011;38381;53.688;10.776;2022-09-13T14:30:19;4.53;;;1.10;;
52468;SDS011;38381;53.688;10.776;2022-09-13T14:35:23;3.10;;;1.42;;
52468;SDS011;38381;53.688;10.776;2022-09-13T14:40:29;2.67;;;1.20;;
52468;SDS011;38381;53.688;10.776;2022-09-13T14:45:31;3.03;;;1.03;;
52468;SDS011;38381;53.688;10.776;2022-09-13T14:50:39;6.15;;;2.03;;
52468;SDS011;38381;53.688;10.776;2022-09-13T14:55:53;12.27;;;2.95;;
52468;SDS011;38381;53.688;10.776;2022-09-13T15:00:57;3.13;;;2.00;;
52468;SDS011;38381;53.688;10.776;2022-09-13T15:06:01;4.15;;;1.42;;
52468;SDS011;38381;53.688;10.776;2022-09-13T15:11:04;3.17;;;2.17;;
52468;SDS011;38381;53.688;10.776;2022-09-13T15:16:29;3.47;;;1.65;;
52468;SDS011;38381;53.688;10.776;2022-09-13T15:21:30;5.15;;;1.88;;
52468;SDS011;38381;53.688;10.776;2022-09-13T15:26:34;6.53;;;1.67;;
52468;SDS011;38381;53.688;10.776;2022-09-13T15:31:35;6.55;;;2.25;;
52468;SDS011;38381;53.688;10.776;2022-09-13T15:36:35;7.90;;;2.10;;
52468;SDS011;38381;53.688;10.776;2022-09-13T15:41:36;6.75;;;2.53;;
52468;SDS011;38381;53.688;10.776;2022-09-13T15:46:48;2.90;;;1.30;;
52468;SDS011;38381;53.688;10.776;2022-09-13T15:52:09;9.02;;;2.47;;
52468;SDS011;38381;53.688;10.776;2022-09-13T15:57:16;6.03;;;2.00;;
52468;SDS011;38381;53.688;10.776;2022-09-13T16:02:26;5.97;;;1.40;;
52468;SDS011;38381;53.688;10.776;2022-09-13T16:07:29;3.50;;;1.77;;
52468;SDS011;38381;53.688;10.776;2022-09-13T16:12:29;6.00;;;1.83;;
52468;SDS011;38381;53.688;10.776;2022-09-13T16:17:30;6.00;;;1.67;;
52468;SDS011;38381;53.688;10.776;2022-09-13T16:22:30;2.75;;;1.88;;
52468;SDS011;38381;53.688;10.776;2022-09-13T16:27:30;2.92;;;1.55;;
52468;SDS011;38381;53.688;10.776;2022-09-13T16:32:31;5.80;;;1.48;;
52468;SDS011;38381;53.688;10.776;2022-09-13T16:37:31;4.77;;;2.40;;
52468;SDS011;38381;53.688;10.776;2022-09-13T16:42:31;6.85;;;2.45;;
52468;SDS011;38381;53.688;10.776;2022-09-13T16:47:33;7.40;;;2.73;;
52468;SDS011;38381;53.688;10.776;2022-09-13T16:52:33;5.93;;;2.10;;
52468;SDS011;38381;53.688;10.776;2022-09-13T16:57:34;8.40;;;2.78;;
52468;SDS011;38381;53.688;10.776;2022-09-13T17:02:35;4.90;;;1.83;;
52468;SDS011;38381;53.688;10.776;2022-09-13T17:07:35;7.75;;;2.15;;
52468;SDS011;38381;53.688;10.776;2022-09-13T17:12:36;3.50;;;1.73;;
52468;SDS011;38381;53.688;10.776;2022-09-13T17:17:36;2.45;;;1.60;;
52468;SDS011;38381;53.688;10.776;2022-09-13T17:22:36;4.88;;;1.25;;
52468;SDS011;38381;53.688;10.776;2022-09-13T17:27:37;3.33;;;1.25;;
52468;SDS011;38381;53.688;10.776;2022-09-13T17:32:37;5.05;;;1.77;;
52468;SDS011;38381;53.688;10.776;2022-09-13T17:37:37;2.30;;;1.58;;
52468;SDS011;38381;53.688;10.776;2022-09-13T17:42:38;2.10;;;1.38;;
52468;SDS011;38381;53.688;10.776;2022-09-13T17:47:38;3.58;;;1.92;;
52468;SDS011;38381;53.688;10.776;2022-09-13T17:52:38;2.17;;;1.40;;
52468;SDS011;38381;53.688;10.776;2022-09-13T17:57:39;2.10;;;1.33;;
52468;SDS011;38381;53.688;10.776;2022-09-13T18:02:42;1.95;;;1.30;;
52468;SDS011;38381;53.688;10.776;2022-09-13T18:07:43;3.25;;;1.52;;
52468;SDS011;38381;53.688;10.776;2022-09-13T18:12:43;2.22;;;1.67;;
52468;SDS011;38381;53.688;10.776;2022-09-13T18:17:44;4.90;;;1.33;;
52468;SDS011;38381;53.688;10.776;2022-09-13T18:22:44;2.65;;;1.63;;
52468;SDS011;38381;53.688;10.776;2022-09-13T18:27:44;2.65;;;1.70;;
52468;SDS011;38381;53.688;10.776;2022-09-13T18:32:44;5.45;;;2.53;;
52468;SDS011;38381;53.688;10.776;2022-09-13T18:37:45;2.97;;;1.33;;
52468;SDS011;38381;53.688;10.776;2022-09-13T18:42:45;3.92;;;1.67;;
52468;SDS011;38381;53.688;10.776;2022-09-13T18:47:45;4.82;;;1.73;;
52468;SDS011;38381;53.688;10.776;2022-09-13T18:52:45;2.27;;;1.47;;
52468;SDS011;38381;53.688;10.776;2022-09-13T18:57:46;4.18;;;1.58;;
52468;SDS011;38381;53.688;10.776;2022-09-13T19:02:46;6.30;;;1.65;;
52468;SDS011;38381;53.688;10.776;2022-09-13T19:07:47;4.00;;;2.03;;
52468;SDS011;38381;53.688;10.776;2022-09-13T19:12:47;2.80;;;1.33;;
52468;SDS011;38381;53.688;10.776;2022-09-13T19:17:47;5.57;;;1.75;;
52468;SDS011;38381;53.688;10.776;2022-09-13T19:22:48;3.53;;;2.10;;
52468;SDS011;38381;53.688;10.776;2022-09-13T19:27:50;3.20;;;2.00;;
52468;SDS011;38381;53.688;10.776;2022-09-13T19:37:51;3.33;;;2.05;;
52468;SDS011;38381;53.688;10.776;2022-09-13T19:42:53;4.88;;;1.73;;
52468;SDS011;38381;53.688;10.776;2022-09-13T19:47:53;4.63;;;2.23;;
52468;SDS011;38381;53.688;10.776;2022-09-13T19:52:53;3.88;;;1.38;;
52468;SDS011;38381;53.688;10.776;2022-09-13T19:57:53;4.78;;;2.05;;
52468;SDS011;38381;53.688;10.776;2022-09-13T20:02:54;5.28;;;1.48;;
52468;SDS011;38381;53.688;10.776;2022-09-13T20:07:54;4.78;;;1.70;;
52468;SDS011;38381;53.688;10.776;2022-09-13T20:12:54;5.22;;;2.00;;
52468;SDS011;38381;53.688;10.776;2022-09-13T20:17:55;4.17;;;1.70;;
52468;SDS011;38381;53.688;10.776;2022-09-13T20:22:55;1.80;;;1.50;;
52468;SDS011;38381;53.688;10.776;2022-09-13T20:27:56;2.07;;;1.67;;
52468;SDS011;38381;53.688;10.776;2022-09-13T20:32:56;4.03;;;1.88;;
52468;SDS011;38381;53.688;10.776;2022-09-13T20:37:57;4.60;;;1.40;;
52468;SDS011;38381;53.688;10.776;2022-09-13T20:42:57;3.88;;;1.60;;
52468;SDS011;38381;53.688;10.776;2022-09-13T20:47:57;6.30;;;1.38;;
52468;SDS011;38381;53.688;10.776;2022-09-13T20:52:58;1.77;;;1.23;;
52468;SDS011;38381;53.688;10.776;2022-09-13T20:57:59;4.43;;;1.60;;
52468;SDS011;38381;53.688;10.776;2022-09-13T21:03:00;1.95;;;1.58;;
52468;SDS011;38381;53.688;10.776;2022-09-13T21:08:00;5.03;;;1.88;;
52468;SDS011;38381;53.688;10.776;2022-09-13T21:13:19;4.32;;;1.98;;
52468;SDS011;38381;53.688;10.776;2022-09-13T21:18:20;4.87;;;1.57;;
52468;SDS011;38381;53.688;10.776;2022-09-13T21:23:20;4.70;;;1.90;;
52468;SDS011;38381;53.688;10.776;2022-09-13T21:28:20;8.43;;;2.10;;
52468;SDS011;38381;53.688;10.776;2022-09-13T21:33:21;2.63;;;1.63;;
52468;SDS011;38381;53.688;10.776;2022-09-13T21:38:22;4.40;;;1.42;;
52468;SDS011;38381;53.688;10.776;2022-09-13T21:43:25;8.13;;;1.27;;
52468;SDS011;38381;53.688;10.776;2022-09-13T21:48:26;3.40;;;1.47;;
52468;SDS011;38381;53.688;10.776;2022-09-13T21:53:29;2.63;;;1.90;;
52468;SDS011;38381;53.688;10.776;2022-09-13T21:58:31;6.32;;;1.75;;
52468;SDS011;38381;53.688;10.776;2022-09-13T22:03:36;5.78;;;2.58;;
52468;SDS011;38381;53.688;10.776;2022-09-13T22:08:38;3.38;;;1.17;;
52468;SDS011;38381;53.688;10.776;2022-09-13T22:13:40;3.42;;;1.48;;
52468;SDS011;38381;53.688;10.776;2022-09-13T22:18:47;3.00;;;1.63;;
52468;SDS011;38381;53.688;10.776;2022-09-13T22:24:04;1.73;;;1.25;;
52468;SDS011;38381;53.688;10.776;2022-09-13T22:29:06;5.47;;;1.90;;
52468;SDS011;38381;53.688;10.776;2022-09-13T22:34:08;7.63;;;2.05;;
52468;SDS011;38381;53.688;10.776;2022-09-13T22:39:12;3.10;;;1.73;;
52468;SDS011;38381;53.688;10.776;2022-09-13T22:44:13;6.25;;;1.75;;
52468;SDS011;38381;53.688;10.776;2022-09-13T22:49:18;6.30;;;2.10;;
52468;SDS011;38381;53.688;10.776;2022-09-13T22:54:18;4.32;;;2.13;;
52468;SDS011;38381;53.688;10.776;2022-09-13T22:59:19;5.70;;;1.17;;
52468;SDS011;38381;53.688;10.776;2022-09-13T23:04:20;2.75;;;1.98;;
52468;SDS011;38381;53.688;10.776;2022-09-13T23:09:21;2.80;;;1.40;;
52468;SDS011;38381;53.688;10.776;2022-09-13T23:14:21;3.00;;;1.75;;
52468;SDS011;38381;53.688;10.776;2022-09-13T23:19:21;9.43;;;2.67;;
52468;SDS011;38381;53.688;10.776;2022-09-13T23:24:24;2.90;;;2.42;;
52468;SDS011;38381;53.688;10.776;2022-09-13T23:29:24;4.13;;;2.03;;
52468;SDS011;38381;53.688;10.776;2022-09-13T23:34:25;6.80;;;2.57;;
52468;SDS011;38381;53.688;10.776;2022-09-13T23:39:25;5.65;;;1.95;;
52468;SDS011;38381;53.688;10.776;2022-09-13T23:44:26;6.63;;;2.23;;
52468;SDS011;38381;53.688;10.776;2022-09-13T23:49:28;4.35;;;1.60;;
52468;SDS011;38381;53.688;10.776;2022-09-13T23:54:28;3.58;;;1.77;;
52468;SDS011;38381;53.688;10.776;2022-09-13T23:59:28;2.42;;;1.75;;
